createdAt,value
2023-05-12T00:00:21.398Z,100912.86
2023-05-12T00:01:24.070Z,100912.09
2023-05-12T00:02:26.368Z,100913.98
2023-05-12T00:03:28.927Z,100912.15
2023-05-12T00:04:31.316Z,100912.15
2023-05-12T00:05:33.708Z,100906.89
2023-05-12T00:06:36.005Z,100905.30
2023-05-12T00:07:38.207Z,100912.25
2023-05-12T00:08:40.765Z,100907.05
2023-05-12T00:09:42.828Z,100907.96
2023-05-12T00:10:45.125Z,100905.44
2023-05-12T00:11:47.275Z,100911.61
2023-05-12T00:12:49.388Z,100908.20
2023-05-12T00:13:51.488Z,100910.18
2023-05-12T00:14:53.899Z,100906.84
2023-05-12T00:15:56.152Z,100911.05
2023-05-12T00:16:58.320Z,100913.02
2023-05-12T00:18:00.410Z,100910.61
2023-05-12T00:19:03.049Z,100912.44
2023-05-12T00:20:06.460Z,100915.27
2023-05-12T00:21:08.713Z,100910.89
2023-05-12T00:22:11.351Z,100907.19
2023-05-12T00:23:13.729Z,100906.50
2023-05-12T00:24:16.051Z,100911.90
2023-05-12T00:25:18.637Z,100911.70
2023-05-12T00:26:20.865Z,100905.63
2023-05-12T00:27:23.338Z,100908.33
2023-05-12T00:28:25.635Z,100911.84
2023-05-12T00:29:27.914Z,100910.06
2023-05-12T00:30:30.321Z,100916.33
2023-05-12T00:31:32.683Z,100924.48
2023-05-12T00:32:35.053Z,100909.30
2023-05-12T00:33:37.356Z,100918.21
2023-05-12T00:34:39.545Z,100926.17
2023-05-12T00:35:41.696Z,100913.83
2023-05-12T00:36:44.041Z,100926.39
2023-05-12T00:37:46.216Z,100916.80
2023-05-12T00:38:48.572Z,100915.16
2023-05-12T00:39:50.843Z,100926.62
2023-05-12T00:40:53.344Z,100926.02
2023-05-12T00:41:57.574Z,100918.12
2023-05-12T00:42:59.982Z,100922.59
2023-05-12T00:44:02.245Z,100926.06
2023-05-12T00:45:05.488Z,100927.08
2023-05-12T00:46:08.621Z,100933.38
2023-05-12T00:47:10.923Z,100927.16
2023-05-12T00:48:13.482Z,100929.86
2023-05-12T00:49:16.015Z,100923.81
2023-05-12T00:50:18.897Z,100935.37
2023-05-12T00:51:22.197Z,100932.86
2023-05-12T00:52:24.922Z,100931.13
2023-05-12T00:53:35.101Z,100925.08
2023-05-12T00:54:34.436Z,100930.52
2023-05-12T00:55:37.388Z,100924.30
2023-05-12T00:56:40.307Z,100924.30
2023-05-12T00:57:43.892Z,100921.73
2023-05-12T00:58:47.408Z,100924.39
2023-05-12T00:59:50.764Z,100930.52
2023-05-12T01:00:53.258Z,100923.52
2023-05-12T01:01:56.399Z,100924.39
2023-05-12T01:02:59.086Z,100928.08
2023-05-12T01:04:03.938Z,100928.13
2023-05-12T01:05:07.490Z,100922.83
2023-05-12T01:07:24.456Z,100922.52
2023-05-12T01:08:27.790Z,100925.86
2023-05-12T01:09:30.358Z,100931.16
2023-05-12T01:10:33.671Z,100932.98
2023-05-12T01:11:37.139Z,100928.50
2023-05-12T01:12:40.387Z,100927.68
2023-05-12T01:13:42.659Z,100919.91
2023-05-12T01:14:44.817Z,100925.28
2023-05-12T01:15:47.790Z,100922.68
2023-05-12T01:16:57.517Z,100924.46
2023-05-12T01:18:02.230Z,100925.37
2023-05-12T01:19:06.400Z,100922.64
2023-05-12T01:20:12.131Z,100924.33
2023-05-12T01:21:16.152Z,100919.86
2023-05-12T01:22:19.540Z,100927.80
2023-05-12T01:23:25.517Z,100928.70
2023-05-12T01:24:31.249Z,100928.63
2023-05-12T01:25:34.619Z,100918.83
2023-05-12T01:26:37.957Z,100920.52
2023-05-12T01:27:42.530Z,100928.42
2023-05-12T01:28:47.426Z,100924.91
2023-05-12T01:29:52.207Z,100926.68
2023-05-12T01:30:54.973Z,100932.06
2023-05-12T01:31:58.387Z,100928.63
2023-05-12T01:33:02.007Z,100926.89
2023-05-12T01:34:04.846Z,100933.92
2023-05-12T01:35:07.614Z,100926.89
2023-05-12T01:36:11.630Z,100932.19
2023-05-12T01:37:13.926Z,100931.36
2023-05-12T01:38:16.683Z,100934.00
2023-05-12T01:39:18.998Z,100932.98
2023-05-12T01:40:23.479Z,100931.27
2023-05-12T01:41:26.062Z,100930.33
2023-05-12T01:42:28.357Z,100925.19
2023-05-12T01:43:30.826Z,100936.66
2023-05-12T01:44:33.257Z,100932.19
2023-05-12T01:45:35.594Z,100934.83
2023-05-12T01:46:38.044Z,100939.22
2023-05-12T01:47:40.301Z,100931.36
2023-05-12T01:48:44.586Z,100928.63
2023-05-12T01:49:47.022Z,100936.57
2023-05-12T01:50:51.299Z,100933.92
2023-05-12T01:51:55.415Z,100927.80
2023-05-12T01:52:59.456Z,100929.53
2023-05-12T01:54:02.611Z,100924.13
2023-05-12T01:55:07.074Z,100933.80
2023-05-12T01:56:11.624Z,100933.92
2023-05-12T01:57:14.200Z,100925.19
2023-05-12T01:58:16.262Z,100932.06
2023-05-12T01:59:18.639Z,100926.81
2023-05-12T02:00:21.327Z,100927.68
2023-05-12T02:01:24.597Z,100929.42
2023-05-12T02:02:26.977Z,100925.86
2023-05-12T02:03:29.254Z,100933.92
2023-05-12T02:04:32.454Z,100932.89
2023-05-12T02:05:35.009Z,100933.96
2023-05-12T02:06:37.947Z,100936.61
2023-05-12T02:07:40.130Z,100934.83
2023-05-12T02:08:43.567Z,100939.30
2023-05-12T02:09:46.418Z,100938.44
2023-05-12T02:10:49.172Z,100933.19
2023-05-12T02:11:51.458Z,100937.70
2023-05-12T02:12:53.680Z,100934.34
2023-05-12T02:13:55.924Z,100932.69
2023-05-12T02:14:58.923Z,100935.34
2023-05-12T02:16:01.734Z,100938.85
2023-05-12T02:17:04.333Z,100941.41
2023-05-12T02:18:06.872Z,100934.34
2023-05-12T02:19:09.148Z,100940.50
2023-05-12T02:20:12.507Z,100935.25
2023-05-12T02:21:14.862Z,100938.77
2023-05-12T02:22:17.003Z,100941.45
2023-05-12T02:23:19.363Z,100942.37
2023-05-12T02:24:21.777Z,100947.83
2023-05-12T02:25:24.408Z,100946.05
2023-05-12T02:26:27.195Z,100943.44
2023-05-12T02:27:29.746Z,100937.28
2023-05-12T02:28:32.095Z,100944.39
2023-05-12T02:29:34.954Z,100945.26
2023-05-12T02:30:37.719Z,100933.88
2023-05-12T02:31:40.960Z,100940.84
2023-05-12T02:32:52.311Z,100940.04
2023-05-12T02:33:54.649Z,100935.50
2023-05-12T02:34:57.515Z,100936.41
2023-05-12T02:36:00.137Z,100937.20
2023-05-12T02:37:02.484Z,100938.23
2023-05-12T02:38:04.827Z,100937.52
2023-05-12T02:39:07.282Z,100938.38
2023-05-12T02:40:10.965Z,100940.16
2023-05-12T02:41:14.886Z,100938.50
2023-05-12T02:42:17.864Z,100941.11
2023-05-12T02:43:20.441Z,100937.59
2023-05-12T02:44:22.632Z,100940.32
2023-05-12T02:45:25.186Z,100935.78
2023-05-12T02:46:27.955Z,100949.84
2023-05-12T02:47:30.903Z,100945.53
2023-05-12T02:48:33.243Z,100941.07
2023-05-12T02:49:35.522Z,100942.06
2023-05-12T02:50:38.237Z,100942.92
2023-05-12T02:51:40.433Z,100945.61
2023-05-12T02:52:42.837Z,100936.77
2023-05-12T02:53:45.442Z,100930.56
2023-05-12T02:54:47.634Z,100944.70
2023-05-12T02:55:49.766Z,100938.42
2023-05-12T02:56:52.125Z,100939.38
2023-05-12T02:57:54.416Z,100947.35
2023-05-12T02:58:56.736Z,100946.52
2023-05-12T03:00:00.021Z,100943.01
2023-05-12T03:01:10.009Z,100938.50
2023-05-12T03:02:06.614Z,100945.61
2023-05-12T03:03:09.123Z,100950.83
2023-05-12T03:04:11.428Z,100943.72
2023-05-12T03:05:13.684Z,100948.27
2023-05-12T03:06:16.395Z,100947.39
2023-05-12T03:07:18.759Z,100946.52
2023-05-12T03:08:22.468Z,100946.36
2023-05-12T03:09:24.833Z,100949.92
2023-05-12T03:10:27.250Z,100945.53
2023-05-12T03:11:29.439Z,100942.80
2023-05-12T03:12:31.830Z,100949.88
2023-05-12T03:13:34.514Z,100948.06
2023-05-12T03:14:37.419Z,100941.90
2023-05-12T03:15:39.572Z,100953.16
2023-05-12T03:16:42.173Z,100951.42
2023-05-12T03:17:45.547Z,100953.98
2023-05-12T03:18:48.400Z,100952.25
2023-05-12T03:19:50.538Z,100945.17
2023-05-12T03:20:52.912Z,100960.94
2023-05-12T03:21:57.031Z,100954.73
2023-05-12T03:23:00.616Z,100960.03
2023-05-12T03:24:03.771Z,100963.47
2023-05-12T03:25:08.836Z,100956.31
2023-05-12T03:26:13.455Z,100963.35
2023-05-12T03:27:15.642Z,100957.89
2023-05-12T03:28:17.897Z,100967.52
2023-05-12T03:29:20.806Z,100962.98
2023-05-12T03:30:23.155Z,100958.47
2023-05-12T03:31:25.380Z,100962.81
2023-05-12T03:32:27.831Z,100967.16
2023-05-12T03:33:29.910Z,100966.20
2023-05-12T03:34:32.151Z,100967.86
2023-05-12T03:35:34.695Z,100966.95
2023-05-12T03:36:38.597Z,100972.98
2023-05-12T03:37:40.925Z,100976.37
2023-05-12T03:38:43.396Z,100975.34
2023-05-12T03:39:47.576Z,100974.34
2023-05-12T03:40:49.830Z,100975.99
2023-05-12T03:41:52.126Z,100975.08
2023-05-12T03:42:54.215Z,100974.08
2023-05-12T03:43:56.497Z,100972.17
2023-05-12T03:44:58.807Z,100972.08
2023-05-12T03:46:01.222Z,100979.91
2023-05-12T03:47:03.776Z,100979.81
2023-05-12T03:48:06.092Z,100976.13
2023-05-12T03:49:08.904Z,100976.95
2023-05-12T03:50:13.200Z,100977.68
2023-05-12T03:51:15.585Z,100980.23
2023-05-12T03:52:17.864Z,100982.77
2023-05-12T03:53:20.365Z,100981.75
2023-05-12T03:54:22.655Z,100982.48
2023-05-12T03:55:24.739Z,100977.05
2023-05-12T03:56:27.154Z,100988.39
2023-05-12T03:57:29.470Z,100990.95
2023-05-12T03:58:31.737Z,100981.98
2023-05-12T03:59:34.495Z,100978.28
2023-05-12T04:00:38.825Z,100983.49
2023-05-12T04:01:42.361Z,100982.48
2023-05-12T04:02:44.565Z,100980.59
2023-05-12T04:03:48.984Z,100984.81
2023-05-12T04:04:51.447Z,100984.71
2023-05-12T04:07:10.188Z,100974.33
2023-05-12T04:08:12.493Z,100981.63
2023-05-12T04:09:14.656Z,100979.73
2023-05-12T04:10:17.181Z,100978.72
2023-05-12T04:11:19.599Z,100972.36
2023-05-12T04:12:23.008Z,100975.78
2023-05-12T04:13:26.699Z,100980.07
2023-05-12T04:14:41.622Z,100981.70
2023-05-12T04:15:35.371Z,100978.09
2023-05-12T04:16:38.604Z,100980.59
2023-05-12T04:17:41.013Z,100981.36
2023-05-12T04:18:43.401Z,100989.22
2023-05-12T04:19:45.723Z,100981.06
2023-05-12T04:20:49.361Z,100983.62
2023-05-12T04:21:51.573Z,100979.06
2023-05-12T04:22:53.809Z,100977.20
2023-05-12T04:23:56.063Z,100980.59
2023-05-12T04:25:00.144Z,100977.77
2023-05-12T04:26:05.627Z,100975.82
2023-05-12T04:27:08.555Z,100980.94
2023-05-12T04:28:12.298Z,100976.39
2023-05-12T04:29:15.277Z,100971.77
2023-05-12T04:30:18.148Z,100968.95
2023-05-12T04:31:20.857Z,100980.36
2023-05-12T04:32:23.146Z,100976.67
2023-05-12T04:33:26.178Z,100981.82
2023-05-12T04:34:29.409Z,100978.95
2023-05-12T04:35:32.060Z,100978.84
2023-05-12T04:36:34.906Z,100974.28
2023-05-12T04:37:36.941Z,100982.09
2023-05-12T04:38:39.640Z,100984.64
2023-05-12T04:39:41.834Z,100978.25
2023-05-12T04:40:44.194Z,100975.41
2023-05-12T04:41:46.948Z,100985.94
2023-05-12T04:42:50.075Z,100983.07
2023-05-12T04:44:57.355Z,100984.58
2023-05-12T04:46:00.427Z,100974.69
2023-05-12T04:47:03.323Z,100981.59
2023-05-12T04:48:06.212Z,100984.12
2023-05-12T04:49:08.601Z,100983.09
2023-05-12T04:50:12.714Z,100986.50
2023-05-12T04:51:15.430Z,100988.08
2023-05-12T04:52:17.602Z,100991.55
2023-05-12T04:53:19.873Z,100987.84
2023-05-12T04:54:22.244Z,100988.64
2023-05-12T04:55:24.950Z,100989.39
2023-05-12T04:56:27.276Z,100990.16
2023-05-12T04:57:29.970Z,100990.91
2023-05-12T04:58:33.938Z,100988.12
2023-05-12T04:59:36.339Z,100990.67
2023-05-12T05:00:39.033Z,100992.34
2023-05-12T05:01:41.972Z,100993.05
2023-05-12T05:02:44.253Z,100986.61
2023-05-12T05:03:46.846Z,100990.08
2023-05-12T05:04:49.280Z,100984.70
2023-05-12T05:05:51.559Z,100978.28
2023-05-12T05:06:53.928Z,100983.48
2023-05-12T05:07:56.232Z,100989.59
2023-05-12T05:08:59.389Z,100979.73
2023-05-12T05:10:01.930Z,100981.34
2023-05-12T05:11:05.357Z,100983.78
2023-05-12T05:12:08.113Z,100985.45
2023-05-12T05:13:11.178Z,100988.92
2023-05-12T05:14:13.360Z,100986.99
2023-05-12T05:15:15.764Z,100986.83
2023-05-12T05:16:19.026Z,100991.10
2023-05-12T05:17:22.318Z,100990.91
2023-05-12T05:18:24.769Z,100988.11
2023-05-12T05:19:45.896Z,100995.95
2023-05-12T05:20:33.543Z,100993.15
2023-05-12T05:21:35.780Z,100995.75
2023-05-12T05:22:38.088Z,100993.82
2023-05-12T05:23:41.888Z,100995.48
2023-05-12T05:24:44.638Z,100991.80
2023-05-12T05:25:46.691Z,100995.19
2023-05-12T05:26:48.867Z,100986.27
2023-05-12T05:27:51.616Z,100995.06
2023-05-12T05:28:54.506Z,101000.26
2023-05-12T05:29:57.862Z,101003.66
2023-05-12T05:31:00.601Z,100994.62
2023-05-12T05:32:03.229Z,100999.83
2023-05-12T05:33:05.565Z,101004.09
2023-05-12T05:34:07.909Z,101001.30
2023-05-12T05:35:10.185Z,101005.63
2023-05-12T05:36:15.322Z,101003.66
2023-05-12T05:37:17.705Z,101008.86
2023-05-12T05:38:19.874Z,101004.32
2023-05-12T05:39:23.760Z,101006.85
2023-05-12T05:40:26.602Z,101010.22
2023-05-12T05:41:28.835Z,101007.34
2023-05-12T05:42:31.156Z,101003.60
2023-05-12T05:43:34.767Z,101005.27
2023-05-12T05:44:38.277Z,101002.42
2023-05-12T05:45:40.737Z,101002.29
2023-05-12T05:46:43.690Z,101005.69
2023-05-12T05:47:46.134Z,101007.28
2023-05-12T05:48:48.343Z,101001.80
2023-05-12T05:49:51.066Z,101006.03
2023-05-12T05:50:53.805Z,101004.16
2023-05-12T05:51:57.667Z,101003.08
2023-05-12T05:53:00.116Z,101001.13
2023-05-12T05:54:02.365Z,100998.36
2023-05-12T05:55:05.597Z,101001.86
2023-05-12T05:56:08.602Z,101004.45
2023-05-12T05:57:10.940Z,101001.57
2023-05-12T05:58:13.459Z,101010.23
2023-05-12T05:59:15.873Z,101011.86
2023-05-12T06:00:18.876Z,101009.91
2023-05-12T06:01:22.497Z,101015.97
2023-05-12T06:02:25.047Z,101011.28
2023-05-12T06:03:27.379Z,101007.49
2023-05-12T06:04:29.820Z,101012.54
2023-05-12T06:05:33.719Z,101008.86
2023-05-12T06:06:36.617Z,101011.34
2023-05-12T06:07:39.020Z,101016.55
2023-05-12T06:08:41.147Z,101014.59
2023-05-12T06:09:43.745Z,101015.30
2023-05-12T06:10:46.248Z,101013.42
2023-05-12T06:11:48.554Z,101007.91
2023-05-12T06:12:51.180Z,101006.02
2023-05-12T06:13:53.361Z,101007.61
2023-05-12T06:14:56.126Z,101004.78
2023-05-12T06:15:58.410Z,101002.90
2023-05-12T06:17:01.861Z,101005.39
2023-05-12T06:18:04.337Z,101004.30
2023-05-12T06:19:06.547Z,101011.22
2023-05-12T06:20:10.337Z,101006.51
2023-05-12T06:21:12.925Z,101010.80
2023-05-12T06:22:15.541Z,101002.63
2023-05-12T06:23:18.221Z,101008.61
2023-05-12T06:24:21.250Z,101005.86
2023-05-12T06:25:23.902Z,101006.54
2023-05-12T06:26:26.206Z,101005.44
2023-05-12T06:27:28.322Z,101012.44
2023-05-12T06:28:30.681Z,101015.91
2023-05-12T06:29:33.399Z,101010.33
2023-05-12T06:30:35.928Z,101000.38
2023-05-12T06:31:38.223Z,101011.78
2023-05-12T06:32:40.363Z,101007.14
2023-05-12T06:33:43.129Z,101013.23
2023-05-12T06:34:45.290Z,101011.08
2023-05-12T06:35:47.447Z,101016.19
2023-05-12T06:36:50.129Z,101011.54
2023-05-12T06:37:52.412Z,101013.08
2023-05-12T06:38:54.630Z,101014.73
2023-05-12T06:39:57.318Z,101011.89
2023-05-12T06:40:59.842Z,101010.86
2023-05-12T06:42:02.744Z,101011.56
2023-05-12T06:43:07.453Z,101010.42
2023-05-12T06:44:10.862Z,101018.21
2023-05-12T06:45:13.180Z,101020.64
2023-05-12T06:46:16.174Z,101016.83
2023-05-12T06:47:18.410Z,101015.71
2023-05-12T06:48:23.003Z,101020.82
2023-05-12T06:49:25.290Z,101007.35
2023-05-12T06:50:27.461Z,101007.16
2023-05-12T06:51:29.642Z,101011.48
2023-05-12T06:52:31.928Z,101009.33
2023-05-12T06:53:34.121Z,101005.50
2023-05-12T06:54:36.345Z,101012.25
2023-05-12T06:55:38.306Z,101006.56
2023-05-12T06:56:40.489Z,101008.87
2023-05-12T06:57:42.734Z,101007.58
2023-05-12T06:58:45.147Z,101014.45
2023-05-12T06:59:47.461Z,101010.66
2023-05-12T07:00:49.858Z,100999.77
2023-05-12T07:01:52.014Z,101007.72
2023-05-12T07:02:54.354Z,101000.49
2023-05-12T07:03:58.030Z,101002.10
2023-05-12T07:05:00.989Z,101009.10
2023-05-12T07:06:03.483Z,101006.25
2023-05-12T07:07:05.994Z,101013.25
2023-05-12T07:08:08.537Z,101004.09
2023-05-12T07:09:10.831Z,101004.83
2023-05-12T07:10:14.387Z,101003.88
2023-05-12T07:11:16.666Z,101001.97
2023-05-12T07:12:18.833Z,101008.89
2023-05-12T07:13:21.861Z,101004.13
2023-05-12T07:14:24.311Z,101010.05
2023-05-12T07:15:26.691Z,101001.74
2023-05-12T07:16:29.041Z,101008.45
2023-05-12T07:17:31.850Z,101011.62
2023-05-12T07:18:34.433Z,101010.41
2023-05-12T07:19:36.653Z,101006.56
2023-05-12T07:20:38.940Z,101008.02
2023-05-12T07:21:41.128Z,101005.92
2023-05-12T07:22:43.296Z,101007.44
2023-05-12T07:23:45.595Z,101013.39
2023-05-12T07:24:47.761Z,101019.34
2023-05-12T07:25:56.479Z,101010.22
2023-05-12T07:26:58.802Z,101016.27
2023-05-12T07:28:01.598Z,101001.80
2023-05-12T07:29:03.569Z,101006.11
2023-05-12T07:30:07.288Z,101013.98
2023-05-12T07:31:09.570Z,101013.76
2023-05-12T07:32:12.901Z,101011.78
2023-05-12T07:33:15.238Z,101014.19
2023-05-12T07:34:17.404Z,101013.91
2023-05-12T07:35:19.790Z,101017.23
2023-05-12T07:36:22.288Z,101008.03
2023-05-12T07:37:25.028Z,101005.06
2023-05-12T07:38:27.175Z,101003.02
2023-05-12T07:39:29.342Z,101004.47
2023-05-12T07:40:31.603Z,101009.64
2023-05-12T07:41:34.518Z,101006.67
2023-05-12T07:42:36.900Z,101005.48
2023-05-12T07:43:39.552Z,101010.77
2023-05-12T07:44:42.489Z,101004.34
2023-05-12T07:45:45.402Z,101007.78
2023-05-12T07:46:48.274Z,101006.06
2023-05-12T07:47:51.287Z,101003.47
2023-05-12T07:48:54.155Z,101001.65
2023-05-12T07:49:56.297Z,101003.19
2023-05-12T07:50:59.008Z,100999.44
2023-05-12T07:52:01.303Z,101001.90
2023-05-12T07:53:04.127Z,101011.39
2023-05-12T07:54:06.797Z,101000.35
2023-05-12T07:55:09.396Z,101006.27
2023-05-12T07:56:12.515Z,101005.20
2023-05-12T07:57:15.222Z,101004.05
2023-05-12T07:58:17.639Z,101003.84
2023-05-12T07:59:19.813Z,100998.24
2023-05-12T08:00:22.785Z,101004.09
2023-05-12T08:01:25.696Z,101001.20
2023-05-12T08:02:28.696Z,101005.52
2023-05-12T08:03:32.512Z,101004.52
2023-05-12T08:04:35.172Z,101011.45
2023-05-12T08:05:37.448Z,100998.78
2023-05-12T08:06:39.807Z,101004.91
2023-05-12T08:07:43.246Z,100996.65
2023-05-12T08:08:45.989Z,100997.28
2023-05-12T08:09:48.193Z,101001.59
2023-05-12T08:10:50.623Z,100993.32
2023-05-12T08:11:52.716Z,100999.26
2023-05-12T08:12:55.324Z,101002.70
2023-05-12T08:13:57.580Z,101001.50
2023-05-12T08:14:59.775Z,101004.09
2023-05-12T08:16:02.001Z,100999.58
2023-05-12T08:17:04.448Z,100996.89
2023-05-12T08:18:06.849Z,100989.78
2023-05-12T08:19:09.480Z,100993.23
2023-05-12T08:20:12.414Z,100994.95
2023-05-12T08:21:14.619Z,100994.00
2023-05-12T08:22:16.808Z,100985.72
2023-05-12T08:23:19.053Z,100987.20
2023-05-12T08:24:21.752Z,100993.24
2023-05-12T08:25:23.798Z,100990.24
2023-05-12T08:26:26.644Z,100990.80
2023-05-12T08:27:28.814Z,100990.45
2023-05-12T08:28:31.281Z,100999.94
2023-05-12T08:29:33.731Z,100990.69
2023-05-12T08:30:36.549Z,100992.17
2023-05-12T08:31:38.802Z,100992.82
2023-05-12T08:32:41.654Z,100991.09
2023-05-12T08:33:44.384Z,100993.69
2023-05-12T08:34:46.690Z,100993.69
2023-05-12T08:35:48.971Z,100987.34
2023-05-12T08:36:55.605Z,100983.57
2023-05-12T08:37:58.131Z,100989.57
2023-05-12T08:39:01.036Z,100990.22
2023-05-12T08:40:08.016Z,100980.31
2023-05-12T08:41:19.704Z,100994.32
2023-05-12T08:45:02.627Z,100981.41
2023-05-12T08:46:06.076Z,100986.47
2023-05-12T08:47:08.754Z,100978.06
2023-05-12T08:48:12.588Z,100981.30
2023-05-12T08:49:17.364Z,100973.08
2023-05-12T08:50:23.253Z,100980.83
2023-05-12T08:51:29.080Z,100985.03
2023-05-12T08:52:35.278Z,100979.32
2023-05-12T08:53:38.642Z,100983.48
2023-05-12T08:54:52.253Z,100988.55
2023-05-12T08:55:58.699Z,100976.80
2023-05-12T08:57:59.373Z,100980.36
2023-05-12T08:59:04.466Z,100983.05
2023-05-12T09:00:08.599Z,100981.11
2023-05-12T09:01:11.666Z,100977.45
2023-05-12T09:02:16.737Z,100983.70
2023-05-12T09:03:20.975Z,100984.30
2023-05-12T09:04:23.265Z,100980.53
2023-05-12T09:05:28.205Z,100978.48
2023-05-12T09:06:32.130Z,100979.12
2023-05-12T09:07:37.511Z,100978.86
2023-05-12T09:08:40.227Z,100982.31
2023-05-12T09:09:45.076Z,100974.00
2023-05-12T09:10:48.767Z,100973.89
2023-05-12T09:11:54.084Z,100974.53
2023-05-12T09:12:59.736Z,100966.66
2023-05-12T09:14:11.474Z,100980.14
2023-05-12T09:15:17.214Z,100978.20
2023-05-12T09:16:25.624Z,100971.83
2023-05-12T09:17:28.213Z,100968.05
2023-05-12T09:20:02.897Z,100965.89
2023-05-12T09:21:05.109Z,100962.82
2023-05-12T09:22:07.798Z,100971.43
2023-05-12T09:24:37.270Z,100961.95
2023-05-12T09:25:39.643Z,100963.41
2023-05-12T09:26:50.762Z,100958.87
2023-05-12T09:27:55.624Z,100957.79
2023-05-12T09:29:06.772Z,100959.25
2023-05-12T09:30:09.632Z,100962.58
2023-05-12T09:31:20.516Z,100957.70
2023-05-12T09:32:33.009Z,100957.44
2023-05-12T09:33:35.768Z,100952.67
2023-05-12T09:34:37.955Z,100958.81
2023-05-12T09:35:41.947Z,100955.14
2023-05-12T09:36:47.113Z,100954.17
2023-05-12T09:37:49.710Z,100954.17
2023-05-12T09:38:59.505Z,100954.17
2023-05-12T09:40:07.739Z,100948.77
2023-05-12T09:41:10.584Z,100953.19
2023-05-12T09:42:14.319Z,100945.96
2023-05-12T09:43:17.241Z,100950.50
2023-05-12T09:44:19.969Z,100948.77
2023-05-12T09:45:23.672Z,100943.38
2023-05-12T09:46:26.731Z,100941.42
2023-05-12T09:47:34.451Z,100945.73
2023-05-12T09:48:37.847Z,100946.32
2023-05-12T09:49:43.548Z,100943.39
2023-05-12T09:50:50.825Z,100948.44
2023-05-12T09:51:57.892Z,100942.92
2023-05-12T09:53:00.002Z,100939.99
2023-05-12T09:54:02.167Z,100939.48
2023-05-12T09:55:08.972Z,100938.16
2023-05-12T09:57:25.915Z,100941.00
2023-05-12T09:58:28.676Z,100942.34
2023-05-12T09:59:33.400Z,100944.92
2023-05-12T10:00:52.396Z,100936.67
2023-05-12T10:01:43.426Z,100938.42
2023-05-12T10:02:51.325Z,100935.72
2023-05-12T10:03:55.796Z,100934.74
2023-05-12T10:05:01.539Z,100934.63
2023-05-12T10:06:07.985Z,100939.66
2023-05-12T10:07:12.793Z,100931.45
2023-05-12T10:09:38.195Z,100927.51
2023-05-12T10:10:41.092Z,100928.35
2023-05-12T10:11:44.590Z,100928.35
2023-05-12T10:12:48.058Z,100924.55
2023-05-12T10:13:51.498Z,100929.09
2023-05-12T10:14:55.956Z,100920.75
2023-05-12T10:15:59.430Z,100928.49
2023-05-12T10:17:02.107Z,100921.13
2023-05-12T10:18:04.766Z,100926.25
2023-05-12T10:19:09.706Z,100917.05
2023-05-12T10:20:13.001Z,100924.05
2023-05-12T10:21:18.461Z,100925.52
2023-05-12T10:22:21.762Z,100927.24
2023-05-12T10:23:26.200Z,100925.28
2023-05-12T10:24:28.422Z,100919.88
2023-05-12T10:25:32.040Z,100922.17
2023-05-12T10:26:36.363Z,100913.95
2023-05-12T10:27:39.828Z,100918.25
2023-05-12T10:28:42.730Z,100917.14
2023-05-12T10:29:46.091Z,100914.31
2023-05-12T10:30:49.871Z,100913.21
2023-05-12T10:31:52.209Z,100914.31
2023-05-12T10:32:54.625Z,100903.27
2023-05-12T10:34:01.921Z,100904.09
2023-05-12T10:35:11.461Z,100901.27
2023-05-12T10:36:18.386Z,100905.56
2023-05-12T10:37:23.428Z,100901.75
2023-05-12T10:38:25.767Z,100907.03
2023-05-12T10:39:31.302Z,100899.78
2023-05-12T10:40:34.373Z,100902.36
2023-05-12T10:41:36.548Z,100899.66
2023-05-12T10:42:43.436Z,100904.08
2023-05-12T10:43:48.738Z,100909.73
2023-05-12T10:44:52.642Z,100907.53
2023-05-12T10:46:18.569Z,100905.11
2023-05-12T10:47:37.794Z,100902.89
2023-05-12T10:49:00.941Z,100900.44
2023-05-12T10:50:03.506Z,100894.30
2023-05-12T10:51:11.713Z,100890.73
2023-05-12T10:52:17.955Z,100898.84
2023-05-12T10:53:38.055Z,100899.45
2023-05-12T10:56:06.992Z,100892.53
2023-05-12T10:57:19.250Z,100892.09
2023-05-12T10:58:22.068Z,100893.80
2023-05-12T10:59:26.295Z,100895.40
2023-05-12T11:00:30.141Z,100891.31
2023-05-12T11:01:33.553Z,100902.86
2023-05-12T11:02:37.413Z,100896.47
2023-05-12T11:03:41.207Z,100901.87
2023-05-12T11:04:52.847Z,100896.59
2023-05-12T11:07:06.205Z,100884.72
2023-05-12T11:08:09.666Z,100892.33
2023-05-12T11:09:13.371Z,100888.89
2023-05-12T11:10:17.564Z,100893.10
2023-05-12T11:11:20.457Z,100891.38
2023-05-12T11:12:23.435Z,100891.38
2023-05-12T11:13:26.525Z,100892.24
2023-05-12T11:14:29.173Z,100892.86
2023-05-12T11:15:31.368Z,100885.45
2023-05-12T11:16:33.978Z,100889.75
2023-05-12T11:17:40.454Z,100886.56
2023-05-12T11:18:43.482Z,100880.78
2023-05-12T11:19:48.026Z,100875.09
2023-05-12T11:20:51.024Z,100885.41
2023-05-12T11:21:55.052Z,100874.34
2023-05-12T11:22:57.323Z,100878.89
2023-05-12T11:24:01.234Z,100878.23
2023-05-12T11:25:11.085Z,100876.27
2023-05-12T11:26:17.939Z,100873.31
2023-05-12T11:27:21.490Z,100878.21
2023-05-12T11:28:23.938Z,100875.98
2023-05-12T11:29:26.585Z,100874.63
2023-05-12T11:30:28.873Z,100870.80
2023-05-12T11:31:31.535Z,100871.50
2023-05-12T11:32:34.322Z,100879.23
2023-05-12T11:33:37.516Z,100872.11
2023-05-12T11:34:39.676Z,100884.64
2023-05-12T11:35:42.418Z,100869.53
2023-05-12T11:36:44.868Z,100876.05
2023-05-12T11:37:47.040Z,100880.89
2023-05-12T11:39:59.940Z,100875.48
2023-05-12T11:41:02.595Z,100871.59
2023-05-12T11:42:13.087Z,100867.30
2023-05-12T11:43:12.745Z,100874.55
2023-05-12T11:44:20.778Z,100875.08
2023-05-12T11:46:34.636Z,100869.88
2023-05-12T11:47:37.098Z,100873.73
2023-05-12T11:48:39.395Z,100874.84
2023-05-12T11:50:59.485Z,100876.06
2023-05-12T11:52:02.128Z,100871.66
2023-05-12T11:53:04.375Z,100869.97
2023-05-12T11:54:06.966Z,100870.95
2023-05-12T11:55:10.730Z,100866.53
2023-05-12T11:56:21.905Z,100866.78
2023-05-12T11:58:39.213Z,100868.70
2023-05-12T11:59:41.471Z,100876.24
2023-05-12T12:00:44.286Z,100867.41
2023-05-12T12:01:46.522Z,100873.95
2023-05-12T12:02:48.772Z,100872.23
2023-05-12T12:03:57.105Z,100873.20
2023-05-12T12:05:00.072Z,100864.36
2023-05-12T12:06:04.249Z,100869.03
2023-05-12T12:07:07.762Z,100871.00
2023-05-12T12:08:15.211Z,100873.95
2023-05-12T12:09:17.933Z,100863.66
2023-05-12T12:10:20.389Z,100877.29
2023-05-12T12:11:25.001Z,100866.97
2023-05-12T12:12:27.298Z,100859.00
2023-05-12T12:13:29.558Z,100870.94
2023-05-12T12:14:32.771Z,100867.49
2023-05-12T12:15:35.110Z,100859.76
2023-05-12T12:16:37.921Z,100861.48
2023-05-12T12:17:40.717Z,100866.64
2023-05-12T12:18:43.865Z,100868.11
2023-05-12T12:19:46.242Z,100864.16
2023-05-12T12:20:48.660Z,100859.25
2023-05-12T12:21:51.319Z,100857.73
2023-05-12T12:22:54.173Z,100860.93